createdAt,value
2023-02-16T00:00:47.537Z,97.36
2023-02-16T00:01:47.496Z,97.45
2023-02-16T00:02:47.517Z,97.45
2023-02-16T00:03:47.468Z,97.17
2023-02-16T00:04:47.381Z,97.26
2023-02-16T00:05:47.338Z,97.07
2023-02-16T00:06:47.310Z,97.45
2023-02-16T00:07:47.276Z,97.45
2023-02-16T00:08:47.232Z,97.07
2023-02-16T00:09:47.180Z,97.26
2023-02-16T00:10:47.179Z,96.88
2023-02-16T00:11:47.104Z,97.26
2023-02-16T00:12:47.071Z,97.55
2023-02-16T00:13:47.040Z,96.88
2023-02-16T00:14:46.993Z,97.07
2023-02-16T00:15:46.991Z,97.45
2023-02-16T00:16:46.917Z,97.64
2023-02-16T00:17:46.878Z,97.92
2023-02-16T00:18:46.839Z,97.36
2023-02-16T00:19:46.795Z,97.74
2023-02-16T00:20:46.773Z,97.45
2023-02-16T00:21:46.722Z,97.45
2023-02-16T00:22:46.691Z,97.74
2023-02-16T00:23:46.640Z,97.36
2023-02-16T00:24:46.608Z,97.26
2023-02-16T00:25:46.570Z,97.45
2023-02-16T00:26:46.544Z,97.59
2023-02-16T00:27:46.488Z,97.92
2023-02-16T00:28:46.444Z,97.26
2023-02-16T00:29:46.415Z,97.36
2023-02-16T00:30:46.418Z,97.31
2023-02-16T00:31:46.511Z,97.45
2023-02-16T00:32:46.293Z,97.45
2023-02-16T00:33:46.262Z,97.40
2023-02-16T00:34:46.230Z,97.83
2023-02-16T00:35:46.175Z,97.45
2023-02-16T00:36:46.141Z,97.40
2023-02-16T00:37:46.101Z,97.31
2023-02-16T00:38:46.058Z,97.31
2023-02-16T00:39:46.022Z,97.40
2023-02-16T00:40:45.991Z,97.40
2023-02-16T00:41:45.945Z,97.59
2023-02-16T00:42:45.899Z,97.21
2023-02-16T00:43:45.877Z,98.16
2023-02-16T00:44:45.834Z,97.97
2023-02-16T00:45:45.793Z,97.50
2023-02-16T00:46:45.756Z,97.88
2023-02-16T00:47:45.712Z,97.69
2023-02-16T00:48:45.667Z,97.88
2023-02-16T00:49:45.641Z,97.69
2023-02-16T00:50:45.605Z,98.16
2023-02-16T00:51:45.561Z,98.25
2023-02-16T00:52:45.518Z,98.07
2023-02-16T00:53:45.475Z,98.16
2023-02-16T00:54:45.432Z,97.97
2023-02-16T00:55:45.408Z,98.16
2023-02-16T00:56:45.358Z,98.25
2023-02-16T00:57:45.318Z,98.07
2023-02-16T00:58:45.279Z,97.69
2023-02-16T00:59:45.240Z,97.88
2023-02-16T01:00:45.203Z,97.88
2023-02-16T01:01:45.229Z,97.59
2023-02-16T01:02:45.124Z,98.44
2023-02-16T01:03:45.138Z,98.16
2023-02-16T01:04:45.065Z,98.35
2023-02-16T01:05:45.042Z,98.25
2023-02-16T01:06:44.966Z,98.16
2023-02-16T01:07:44.936Z,98.25
2023-02-16T01:08:44.895Z,98.16
2023-02-16T01:09:44.845Z,98.16
2023-02-16T01:10:44.821Z,98.25
2023-02-16T01:11:44.781Z,97.88
2023-02-16T01:12:44.729Z,97.97
2023-02-16T01:13:44.690Z,98.16
2023-02-16T01:14:44.648Z,98.25
2023-02-16T01:15:44.639Z,97.88
2023-02-16T01:16:44.570Z,97.97
2023-02-16T01:17:44.558Z,97.69
2023-02-16T01:18:44.487Z,98.25
2023-02-16T01:19:44.448Z,97.97
2023-02-16T01:20:44.421Z,98.16
2023-02-16T01:21:44.379Z,97.88
2023-02-16T01:22:44.331Z,97.97
2023-02-16T01:23:44.293Z,98.07
2023-02-16T01:24:44.256Z,98.92
2023-02-16T01:25:44.334Z,98.92
2023-02-16T01:26:44.198Z,98.54
2023-02-16T01:27:44.148Z,98.92
2023-02-16T01:28:44.105Z,98.54
2023-02-16T01:29:44.068Z,98.73
2023-02-16T01:30:44.022Z,98.73
2023-02-16T01:31:44.154Z,98.54
2023-02-16T01:32:43.944Z,98.63
2023-02-16T01:33:43.908Z,98.35
2023-02-16T01:34:43.862Z,98.54
2023-02-16T01:35:43.821Z,98.82
2023-02-16T01:36:43.800Z,98.82
2023-02-16T01:37:43.747Z,98.54
2023-02-16T01:38:43.710Z,98.54
2023-02-16T01:39:43.696Z,98.92
2023-02-16T01:40:43.628Z,98.92
2023-02-16T01:41:43.600Z,97.88
2023-02-16T01:42:43.558Z,98.16
2023-02-16T01:43:43.631Z,97.78
2023-02-16T01:44:43.472Z,98.16
2023-02-16T01:45:43.433Z,98.07
2023-02-16T01:46:43.497Z,98.07
2023-02-16T01:47:43.364Z,97.88
2023-02-16T01:48:43.323Z,97.97
2023-02-16T01:49:43.274Z,98.16
2023-02-16T01:50:43.242Z,97.88
2023-02-16T01:51:43.198Z,97.97
2023-02-16T01:52:43.204Z,98.16
2023-02-16T01:53:43.146Z,98.07
2023-02-16T01:54:43.098Z,97.97
2023-02-16T01:55:43.061Z,98.07
2023-02-16T01:56:43.012Z,97.97
2023-02-16T01:57:42.966Z,98.16
2023-02-16T01:58:42.920Z,98.16
2023-02-16T01:59:42.891Z,98.16
2023-02-16T02:00:42.844Z,97.97
2023-02-16T02:01:42.868Z,97.97
2023-02-16T02:02:42.844Z,98.82
2023-02-16T02:03:42.744Z,98.35
2023-02-16T02:04:42.689Z,98.73
2023-02-16T02:05:42.646Z,98.73
2023-02-16T02:06:42.618Z,98.63
2023-02-16T02:07:42.595Z,98.63
2023-02-16T02:08:42.543Z,98.63
2023-02-16T02:09:42.501Z,98.73
2023-02-16T02:10:42.449Z,98.54
2023-02-16T02:11:42.415Z,98.54
2023-02-16T02:12:42.401Z,98.63
2023-02-16T02:13:42.351Z,98.63
2023-02-16T02:14:42.294Z,98.63
2023-02-16T02:15:42.309Z,98.63
2023-02-16T02:16:42.222Z,98.82
2023-02-16T02:17:42.180Z,98.82
2023-02-16T02:18:42.137Z,98.82
2023-02-16T02:19:42.100Z,98.82
2023-02-16T02:20:42.064Z,97.88
2023-02-16T02:21:42.022Z,97.97
2023-02-16T02:22:41.976Z,98.21
2023-02-16T02:23:41.945Z,97.97
2023-02-16T02:24:41.903Z,98.16
2023-02-16T02:25:41.859Z,98.11
2023-02-16T02:26:41.823Z,98.07
2023-02-16T02:27:41.785Z,97.92
2023-02-16T02:28:41.740Z,98.11
2023-02-16T02:29:41.714Z,97.97
2023-02-16T02:30:41.667Z,97.64
2023-02-16T02:31:41.792Z,98.77
2023-02-16T02:32:41.583Z,98.68
2023-02-16T02:33:41.552Z,98.68
2023-02-16T02:34:41.511Z,98.49
2023-02-16T02:35:41.465Z,98.77
2023-02-16T02:36:41.426Z,98.77
2023-02-16T02:37:41.383Z,98.87
2023-02-16T02:38:41.348Z,98.68
2023-02-16T02:39:41.315Z,98.58
2023-02-16T02:40:41.271Z,98.68
2023-02-16T02:41:41.229Z,98.77
2023-02-16T02:42:41.185Z,98.49
2023-02-16T02:43:41.156Z,98.49
2023-02-16T02:44:41.113Z,98.68
2023-02-16T02:45:41.079Z,98.49
2023-02-16T02:46:41.083Z,98.77
2023-02-16T02:47:41.001Z,98.77
2023-02-16T02:48:40.968Z,98.49
2023-02-16T02:49:40.921Z,98.77
2023-02-16T02:50:40.873Z,98.77
2023-02-16T02:51:40.865Z,98.68
2023-02-16T02:52:40.797Z,98.77
2023-02-16T02:53:40.763Z,98.58
2023-02-16T02:54:40.720Z,98.68
2023-02-16T02:55:40.682Z,98.49
2023-02-16T02:56:40.639Z,98.77
2023-02-16T02:57:40.608Z,98.87
2023-02-16T02:58:40.558Z,97.83
2023-02-16T02:59:40.524Z,97.92
2023-02-16T03:00:40.517Z,98.87
2023-02-16T03:01:40.464Z,98.77
2023-02-16T03:02:40.401Z,98.87
2023-02-16T03:03:40.371Z,98.68
2023-02-16T03:04:40.331Z,98.87
2023-02-16T03:05:40.285Z,98.87
2023-02-16T03:06:40.243Z,98.77
2023-02-16T03:07:40.206Z,98.87
2023-02-16T03:08:40.166Z,98.77
2023-02-16T03:09:40.129Z,98.77
2023-02-16T03:10:40.086Z,98.58
2023-02-16T03:11:40.047Z,98.49
2023-02-16T03:12:40.016Z,98.68
2023-02-16T03:13:39.988Z,98.49
2023-02-16T03:14:39.925Z,98.68
2023-02-16T03:15:39.890Z,98.58
2023-02-16T03:16:39.957Z,98.68
2023-02-16T03:17:39.808Z,98.49
2023-02-16T03:18:39.767Z,98.68
2023-02-16T03:19:39.829Z,98.68
2023-02-16T03:20:39.692Z,98.58
2023-02-16T03:21:39.649Z,98.30
2023-02-16T03:22:39.611Z,98.49
2023-02-16T03:23:39.569Z,98.49
2023-02-16T03:24:39.539Z,98.77
2023-02-16T03:25:39.500Z,98.68
2023-02-16T03:26:39.451Z,98.77
2023-02-16T03:27:39.414Z,98.49
2023-02-16T03:28:39.373Z,98.49
2023-02-16T03:29:39.341Z,98.58
2023-02-16T03:30:39.361Z,98.49
2023-02-16T03:31:39.361Z,98.68
2023-02-16T03:32:39.213Z,98.49
2023-02-16T03:33:39.213Z,98.68
2023-02-16T03:34:39.131Z,97.73
2023-02-16T03:35:39.103Z,98.02
2023-02-16T03:36:39.055Z,97.83
2023-02-16T03:37:39.021Z,98.77
2023-02-16T03:38:38.977Z,98.49
2023-02-16T03:39:38.938Z,98.68
2023-02-16T03:40:38.897Z,98.68
2023-02-16T03:41:38.869Z,98.68
2023-02-16T03:42:38.811Z,98.58
2023-02-16T03:43:38.784Z,98.58
2023-02-16T03:44:38.744Z,98.68
2023-02-16T03:45:38.750Z,98.58
2023-02-16T03:46:38.665Z,98.58
2023-02-16T03:47:38.623Z,98.30
2023-02-16T03:48:38.576Z,98.49
2023-02-16T03:49:38.538Z,98.39
2023-02-16T03:50:38.518Z,98.39
2023-02-16T03:51:38.520Z,98.49
2023-02-16T03:52:38.427Z,98.87
2023-02-16T03:53:38.378Z,98.49
2023-02-16T03:54:38.345Z,98.77
2023-02-16T03:55:38.306Z,98.49
2023-02-16T03:56:38.278Z,98.77
2023-02-16T03:57:38.233Z,98.68
2023-02-16T03:58:38.184Z,98.49
2023-02-16T03:59:38.147Z,98.87
2023-02-16T04:00:38.112Z,98.87
2023-02-16T04:01:38.078Z,98.58
2023-02-16T04:02:38.027Z,98.49
2023-02-16T04:03:37.989Z,98.68
2023-02-16T04:04:37.952Z,98.58
2023-02-16T04:05:37.908Z,98.68
2023-02-16T04:06:37.874Z,98.77
2023-02-16T04:07:37.838Z,98.77
2023-02-16T04:08:37.795Z,98.77
2023-02-16T04:09:37.754Z,98.87
2023-02-16T04:10:37.711Z,98.77
2023-02-16T04:11:37.680Z,98.87
2023-02-16T04:12:37.660Z,98.77
2023-02-16T04:13:37.596Z,98.49
2023-02-16T04:14:37.561Z,98.58
2023-02-16T04:15:37.519Z,98.49
2023-02-16T04:16:37.499Z,98.68
2023-02-16T04:17:37.435Z,98.77
2023-02-16T04:18:37.395Z,99.06
2023-02-16T04:19:37.359Z,98.02
2023-02-16T04:20:37.326Z,97.92
2023-02-16T04:21:37.295Z,98.02
2023-02-16T04:22:37.248Z,97.83
2023-02-16T04:23:37.198Z,98.11
2023-02-16T04:24:37.164Z,98.68
2023-02-16T04:25:37.124Z,97.92
2023-02-16T04:26:37.079Z,98.11
2023-02-16T04:27:37.036Z,98.02
2023-02-16T04:28:37.009Z,97.73
2023-02-16T04:29:36.957Z,97.92
2023-02-16T04:30:37.117Z,98.02
2023-02-16T04:31:37.056Z,98.11
2023-02-16T04:32:36.841Z,98.11
2023-02-16T04:33:36.798Z,98.30
2023-02-16T04:34:36.766Z,98.02
2023-02-16T04:35:36.718Z,97.73
2023-02-16T04:36:36.688Z,98.11
2023-02-16T04:37:36.641Z,97.92
2023-02-16T04:38:36.608Z,98.21
2023-02-16T04:39:36.559Z,98.02
2023-02-16T04:40:36.517Z,98.11
2023-02-16T04:41:36.490Z,98.02
2023-02-16T04:42:36.441Z,98.11
2023-02-16T04:43:36.409Z,97.92
2023-02-16T04:44:36.366Z,97.83
2023-02-16T04:45:36.327Z,97.92
2023-02-16T04:46:36.280Z,98.30
2023-02-16T04:47:36.243Z,98.02
2023-02-16T04:48:36.238Z,97.92
2023-02-16T04:49:36.176Z,97.92
2023-02-16T04:50:36.120Z,98.11
2023-02-16T04:51:36.085Z,97.92
2023-02-16T04:52:36.044Z,97.83
2023-02-16T04:53:36.008Z,97.73
2023-02-16T04:54:35.975Z,97.83
2023-02-16T04:55:35.935Z,98.11
2023-02-16T04:56:35.884Z,98.11
2023-02-16T04:57:35.844Z,97.92
2023-02-16T04:58:35.804Z,97.92
2023-02-16T04:59:35.772Z,98.11
2023-02-16T05:00:36.694Z,98.21
2023-02-16T05:01:35.725Z,97.83
2023-02-16T05:02:35.651Z,98.21
2023-02-16T05:03:35.617Z,97.83
2023-02-16T05:04:35.629Z,98.11
2023-02-16T05:05:35.593Z,98.39
2023-02-16T05:06:35.488Z,98.21
2023-02-16T05:07:35.447Z,98.11
2023-02-16T05:08:35.410Z,98.11
2023-02-16T05:09:35.369Z,98.11
2023-02-16T05:10:35.330Z,98.21
2023-02-16T05:11:35.299Z,98.39
2023-02-16T05:12:35.286Z,98.21
2023-02-16T05:13:35.219Z,98.30
2023-02-16T05:14:35.197Z,98.11
2023-02-16T05:15:35.194Z,98.11
2023-02-16T05:16:35.093Z,98.30
2023-02-16T05:17:35.057Z,98.39
2023-02-16T05:18:35.021Z,98.21
2023-02-16T05:19:34.981Z,97.45
2023-02-16T05:20:34.940Z,98.39
2023-02-16T05:21:34.892Z,97.83
2023-02-16T05:22:34.849Z,97.92
2023-02-16T05:23:34.812Z,97.73
2023-02-16T05:24:34.786Z,97.92
2023-02-16T05:25:34.732Z,97.83
2023-02-16T05:26:34.699Z,97.83
2023-02-16T05:27:34.653Z,97.45
2023-02-16T05:28:34.656Z,98.39
2023-02-16T05:29:34.579Z,97.64
2023-02-16T05:30:34.630Z,97.83
2023-02-16T05:31:34.649Z,97.83
2023-02-16T05:32:34.469Z,97.64
2023-02-16T05:33:34.424Z,98.02
2023-02-16T05:34:34.378Z,98.02
2023-02-16T05:35:34.350Z,98.21
2023-02-16T05:36:34.307Z,97.83
2023-02-16T05:37:34.263Z,96.97
2023-02-16T05:38:34.256Z,96.97
2023-02-16T05:39:34.181Z,97.83
2023-02-16T05:40:34.149Z,97.92
2023-02-16T05:41:34.108Z,97.73
2023-02-16T05:42:34.072Z,97.83
2023-02-16T05:43:34.030Z,97.83
2023-02-16T05:44:33.985Z,97.83
2023-02-16T05:45:33.947Z,97.73
2023-02-16T05:46:34.076Z,97.83
2023-02-16T05:47:33.868Z,97.73
2023-02-16T05:48:33.834Z,97.92
2023-02-16T05:49:33.790Z,97.83
2023-02-16T05:50:33.754Z,97.83
2023-02-16T05:51:33.712Z,97.73
2023-02-16T05:52:33.680Z,97.83
2023-02-16T05:53:33.651Z,97.92
2023-02-16T05:54:33.595Z,97.64
2023-02-16T05:55:33.549Z,97.83
2023-02-16T05:56:33.514Z,97.64
2023-02-16T05:57:33.472Z,98.39
2023-02-16T05:58:33.434Z,97.45
2023-02-16T05:59:33.401Z,98.39
2023-02-16T06:00:33.361Z,98.02
2023-02-16T06:01:33.320Z,98.39
2023-02-16T06:02:33.322Z,98.11
2023-02-16T06:03:33.275Z,98.21
2023-02-16T06:04:33.203Z,97.92
2023-02-16T06:05:33.157Z,98.02
2023-02-16T06:06:33.114Z,98.11
2023-02-16T06:07:33.076Z,98.11
2023-02-16T06:08:33.041Z,97.92
2023-02-16T06:09:33.001Z,98.02
2023-02-16T06:10:32.969Z,98.30
2023-02-16T06:11:32.920Z,98.30
2023-02-16T06:12:32.884Z,98.11
2023-02-16T06:13:32.859Z,98.44
2023-02-16T06:14:32.829Z,98.11
2023-02-16T06:15:32.786Z,98.16
2023-02-16T06:16:32.725Z,98.25
2023-02-16T06:17:32.680Z,98.16
2023-02-16T06:18:32.684Z,98.44
2023-02-16T06:19:32.610Z,98.44
2023-02-16T06:20:32.563Z,98.35
2023-02-16T06:21:32.533Z,98.44
2023-02-16T06:22:32.488Z,98.25
2023-02-16T06:23:32.443Z,98.25
2023-02-16T06:24:32.419Z,97.59
2023-02-16T06:25:32.384Z,97.50
2023-02-16T06:26:32.328Z,97.78
2023-02-16T06:27:32.287Z,97.59
2023-02-16T06:28:32.247Z,98.16
2023-02-16T06:29:32.237Z,97.50
2023-02-16T06:30:32.226Z,97.78
2023-02-16T06:31:34.527Z,97.69
2023-02-16T06:32:32.153Z,97.88
2023-02-16T06:33:32.058Z,97.50
2023-02-16T06:34:32.011Z,97.88
2023-02-16T06:35:32.005Z,98.07
2023-02-16T06:36:31.939Z,97.88
2023-02-16T06:37:31.895Z,98.25
2023-02-16T06:38:31.852Z,97.50
2023-02-16T06:39:31.859Z,97.88
2023-02-16T06:40:31.789Z,97.78
2023-02-16T06:41:32.102Z,97.88
2023-02-16T06:42:31.698Z,98.07
2023-02-16T06:43:31.737Z,97.69
2023-02-16T06:44:31.622Z,97.78
2023-02-16T06:45:31.582Z,98.07
2023-02-16T06:46:31.650Z,97.97
2023-02-16T06:47:31.516Z,97.97
2023-02-16T06:48:31.460Z,97.97
2023-02-16T06:49:31.447Z,97.88
2023-02-16T06:50:31.382Z,97.97
2023-02-16T06:51:31.352Z,97.50
2023-02-16T06:52:31.301Z,97.40
2023-02-16T06:53:31.272Z,97.31
2023-02-16T06:54:31.285Z,97.02
2023-02-16T06:55:31.189Z,97.31
2023-02-16T06:56:31.148Z,97.31
2023-02-16T06:57:31.109Z,97.59
2023-02-16T06:58:31.065Z,97.40
2023-02-16T06:59:31.025Z,97.50
2023-02-16T07:00:31.155Z,97.50
2023-02-16T07:01:30.961Z,97.31
2023-02-16T07:02:30.908Z,97.50
2023-02-16T07:03:31.036Z,97.31
2023-02-16T07:04:30.840Z,97.59
2023-02-16T07:05:30.792Z,97.64
2023-02-16T07:06:30.757Z,97.78
2023-02-16T07:07:30.719Z,97.36
2023-02-16T07:08:30.681Z,97.45
2023-02-16T07:09:30.642Z,97.64
2023-02-16T07:10:40.358Z,97.55
2023-02-16T07:11:30.560Z,97.45
2023-02-16T07:12:30.519Z,97.55
2023-02-16T07:13:30.483Z,97.45
2023-02-16T07:14:30.437Z,97.45
2023-02-16T07:15:30.409Z,97.45
2023-02-16T07:16:30.454Z,97.36
2023-02-16T07:17:30.323Z,97.64
2023-02-16T07:18:30.285Z,97.36
2023-02-16T07:19:30.256Z,97.55
2023-02-16T07:20:30.212Z,97.36
2023-02-16T07:21:30.167Z,97.55
2023-02-16T07:22:30.135Z,97.36
2023-02-16T07:23:30.089Z,97.45
2023-02-16T07:24:30.054Z,97.45
2023-02-16T07:25:30.016Z,97.45
2023-02-16T07:26:29.988Z,97.74
2023-02-16T07:27:29.932Z,97.64
2023-02-16T07:28:29.902Z,97.45
2023-02-16T07:29:29.873Z,97.45
2023-02-16T07:30:29.932Z,97.36
2023-02-16T07:31:29.913Z,97.26
2023-02-16T07:32:29.843Z,97.36
2023-02-16T07:33:29.699Z,97.26
2023-02-16T07:34:29.659Z,97.26
2023-02-16T07:35:29.651Z,97.64
2023-02-16T07:36:29.588Z,97.64
2023-02-16T07:37:29.544Z,97.07
2023-02-16T07:38:29.509Z,97.36
2023-02-16T07:39:29.464Z,97.55
2023-02-16T07:40:29.439Z,97.36
2023-02-16T07:41:29.396Z,97.45
2023-02-16T07:42:29.352Z,97.69
2023-02-16T07:43:29.309Z,97.50
2023-02-16T07:44:29.270Z,97.50
2023-02-16T07:45:29.297Z,97.41
2023-02-16T07:46:30.483Z,97.69
2023-02-16T07:47:29.158Z,97.69
2023-02-16T07:48:29.132Z,97.88
2023-02-16T07:49:29.076Z,97.50
2023-02-16T07:50:29.048Z,97.60
2023-02-16T07:51:29.032Z,97.69
2023-02-16T07:52:28.967Z,97.50
2023-02-16T07:53:28.922Z,97.50
2023-02-16T07:54:28.887Z,97.31
2023-02-16T07:55:28.878Z,97.41
2023-02-16T07:56:28.806Z,97.69
2023-02-16T07:57:28.766Z,97.50
2023-02-16T07:58:28.801Z,97.60
2023-02-16T07:59:28.727Z,97.12
2023-02-16T08:00:28.654Z,97.36
2023-02-16T08:01:28.611Z,97.12
2023-02-16T08:02:28.696Z,97.50
2023-02-16T08:03:28.571Z,97.02
2023-02-16T08:04:28.500Z,97.31
2023-02-16T08:05:28.457Z,97.45
2023-02-16T08:06:28.431Z,97.17
2023-02-16T08:07:28.384Z,97.36
2023-02-16T08:08:28.347Z,97.36
2023-02-16T08:09:28.306Z,97.17
2023-02-16T08:10:28.273Z,97.17
2023-02-16T08:11:28.238Z,97.17
2023-02-16T08:12:28.196Z,97.64
2023-02-16T08:13:28.154Z,96.60
2023-02-16T08:14:28.119Z,96.98
2023-02-16T08:15:28.080Z,96.88
2023-02-16T08:16:28.153Z,97.17
2023-02-16T08:17:28.006Z,97.17
2023-02-16T08:18:27.998Z,97.17
2023-02-16T08:19:27.926Z,96.60
2023-02-16T08:20:46.069Z,96.50
2023-02-16T08:21:27.854Z,96.60
2023-02-16T08:22:27.813Z,96.69
2023-02-16T08:23:27.789Z,96.69
2023-02-16T08:24:27.737Z,96.17
2023-02-16T08:25:27.727Z,96.55
2023-02-16T08:26:27.667Z,96.36
2023-02-16T08:27:27.623Z,96.36
2023-02-16T08:28:27.591Z,96.08
2023-02-16T08:29:27.555Z,96.36
2023-02-16T08:30:27.547Z,96.36
2023-02-16T08:31:27.587Z,96.36
2023-02-16T08:32:27.536Z,96.36
2023-02-16T08:33:27.399Z,96.26
2023-02-16T08:34:27.417Z,95.79
2023-02-16T08:35:27.319Z,96.08
2023-02-16T08:36:27.288Z,95.98
2023-02-16T08:37:27.250Z,96.45
2023-02-16T08:38:27.212Z,96.08
2023-02-16T08:39:27.226Z,96.36
2023-02-16T08:40:27.144Z,96.45
2023-02-16T08:41:27.099Z,95.89
2023-02-16T08:42:27.057Z,96.55
2023-02-16T08:43:27.029Z,96.45
2023-02-16T08:44:27.077Z,95.75
2023-02-16T08:45:26.949Z,96.41
2023-02-16T08:46:26.924Z,95.94
2023-02-16T08:47:26.867Z,96.03
2023-02-16T08:48:26.846Z,96.31
2023-02-16T08:49:26.792Z,95.56
2023-02-16T08:50:26.765Z,95.94
2023-02-16T08:51:26.714Z,96.22
2023-02-16T08:52:26.679Z,96.22
2023-02-16T08:53:26.745Z,96.22
2023-02-16T08:54:26.653Z,95.84
2023-02-16T08:55:26.580Z,95.84
2023-02-16T08:56:26.540Z,96.12
2023-02-16T08:57:26.492Z,95.65
2023-02-16T08:58:26.457Z,96.03
2023-02-16T08:59:28.485Z,96.03
2023-02-16T09:00:26.379Z,96.03
2023-02-16T09:01:26.375Z,95.94
2023-02-16T09:02:26.342Z,95.46
2023-02-16T09:03:26.274Z,95.94
2023-02-16T09:04:26.262Z,95.36
2023-02-16T09:05:26.198Z,95.75
2023-02-16T09:06:26.152Z,95.46
2023-02-16T09:07:26.128Z,95.65
2023-02-16T09:08:26.079Z,95.60
2023-02-16T09:09:26.051Z,95.98
2023-02-16T09:10:26.006Z,95.22
2023-02-16T09:11:25.975Z,95.41
2023-02-16T09:12:25.935Z,95.03
2023-02-16T09:13:25.898Z,95.12
2023-02-16T09:14:25.868Z,95.12
2023-02-16T09:15:25.822Z,95.22
2023-02-16T09:16:25.794Z,95.41
2023-02-16T09:17:25.744Z,95.03
2023-02-16T09:18:25.714Z,95.12
2023-02-16T09:19:25.668Z,95.03
2023-02-16T09:20:25.636Z,94.93
2023-02-16T09:21:25.700Z,95.08
2023-02-16T09:22:25.569Z,95.17
2023-02-16T09:23:25.522Z,95.17
2023-02-16T09:24:25.486Z,94.89
2023-02-16T09:25:25.481Z,95.27
2023-02-16T09:26:25.414Z,94.98
2023-02-16T09:27:40.003Z,94.60
2023-02-16T09:28:25.359Z,94.79
2023-02-16T09:29:25.300Z,94.74
2023-02-16T09:30:25.345Z,95.12
2023-02-16T09:31:25.384Z,94.93
2023-02-16T09:32:25.191Z,94.17
2023-02-16T09:33:25.153Z,94.65
2023-02-16T09:34:27.527Z,94.46
2023-02-16T09:35:25.089Z,93.98
2023-02-16T09:36:25.052Z,94.51
2023-02-16T09:37:25.014Z,94.37
2023-02-16T09:38:24.972Z,94.22
2023-02-16T09:39:24.940Z,93.84
2023-02-16T09:40:24.898Z,93.55
2023-02-16T09:41:24.861Z,93.55
2023-02-16T09:42:24.826Z,93.46
2023-02-16T09:43:24.799Z,93.37
2023-02-16T09:44:24.752Z,93.55
2023-02-16T09:45:24.725Z,93.74
2023-02-16T09:46:24.695Z,93.93
2023-02-16T09:47:24.646Z,93.55
2023-02-16T09:48:24.625Z,93.08
2023-02-16T09:49:24.583Z,93.46
2023-02-16T09:50:50.422Z,93.17
2023-02-16T09:51:33.854Z,93.51
2023-02-16T09:52:24.464Z,93.98
2023-02-16T09:53:24.448Z,93.98
2023-02-16T09:54:24.402Z,93.79
2023-02-16T09:55:24.358Z,93.60
2023-02-16T09:56:24.327Z,93.70
2023-02-16T09:57:24.309Z,93.70
2023-02-16T09:58:24.257Z,93.70
2023-02-16T09:59:24.237Z,93.70
2023-02-16T10:00:24.182Z,93.70
2023-02-16T10:01:24.150Z,93.79
2023-02-16T10:02:24.134Z,93.51
2023-02-16T10:03:24.074Z,93.60
2023-02-16T10:04:24.041Z,93.79
2023-02-16T10:05:24.007Z,93.79
2023-02-16T10:06:24.004Z,93.51
2023-02-16T10:07:23.930Z,94.08
2023-02-16T10:08:23.895Z,93.70
2023-02-16T10:09:23.854Z,93.84
2023-02-16T10:10:23.828Z,93.98
2023-02-16T10:11:23.830Z,93.88
2023-02-16T10:12:23.757Z,93.88
2023-02-16T10:13:23.724Z,94.03
2023-02-16T10:14:23.678Z,93.93
2023-02-16T10:15:23.681Z,93.65
2023-02-16T10:16:23.612Z,93.65
2023-02-16T10:17:23.584Z,93.74
2023-02-16T10:18:23.543Z,93.74
2023-02-16T10:19:23.521Z,93.93
2023-02-16T10:20:23.470Z,93.84
2023-02-16T10:21:23.440Z,93.27
2023-02-16T10:22:23.400Z,93.08
2023-02-16T10:23:23.372Z,93.27
2023-02-16T10:24:23.330Z,93.93
2023-02-16T10:25:23.289Z,93.84
2023-02-16T10:26:23.258Z,93.65
2023-02-16T10:27:23.222Z,93.65
2023-02-16T10:28:23.205Z,93.36
2023-02-16T10:29:23.179Z,93.46
2023-02-16T10:30:23.153Z,93.74
2023-02-16T10:31:23.188Z,93.65
2023-02-16T10:32:23.050Z,93.55
2023-02-16T10:33:23.010Z,93.65
2023-02-16T10:34:23.388Z,93.46
2023-02-16T10:35:22.944Z,93.65
2023-02-16T10:36:22.908Z,93.27
2023-02-16T10:37:22.873Z,93.46
2023-02-16T10:38:22.844Z,93.65
2023-02-16T10:39:22.808Z,93.27
2023-02-16T10:40:23.490Z,93.60
2023-02-16T10:41:22.734Z,93.60
2023-02-16T10:42:22.713Z,93.31
2023-02-16T10:43:22.699Z,93.22
2023-02-16T10:44:22.634Z,92.65
2023-02-16T10:45:22.598Z,92.65
2023-02-16T10:46:22.689Z,92.83
2023-02-16T10:47:22.641Z,93.22
2023-02-16T10:48:22.496Z,92.93
2023-02-16T10:49:22.468Z,92.55
2023-02-16T10:50:22.432Z,93.02
2023-02-16T10:51:23.165Z,92.55
2023-02-16T10:52:22.357Z,92.41
2023-02-16T10:53:22.331Z,92.88
2023-02-16T10:54:22.284Z,92.69
2023-02-16T10:55:22.248Z,92.79
2023-02-16T10:56:22.225Z,92.50
2023-02-16T10:57:22.181Z,92.79
2023-02-16T10:58:22.713Z,93.07
2023-02-16T10:59:22.120Z,92.88
2023-02-16T11:00:22.083Z,92.21
2023-02-16T11:01:22.070Z,92.50
2023-02-16T11:02:22.008Z,92.02
2023-02-16T11:03:22.026Z,92.41
2023-02-16T11:04:23.053Z,91.64
2023-02-16T11:05:21.907Z,91.74
2023-02-16T11:06:21.875Z,91.93
2023-02-16T11:07:21.843Z,91.93
2023-02-16T11:08:21.817Z,91.74
2023-02-16T11:09:21.810Z,91.64
2023-02-16T11:10:21.729Z,91.74
2023-02-16T11:11:21.695Z,92.12
2023-02-16T11:12:21.681Z,92.12
2023-02-16T11:13:21.626Z,92.02
2023-02-16T11:14:21.592Z,92.12
2023-02-16T11:15:21.553Z,91.93
2023-02-16T11:16:21.544Z,92.12
2023-02-16T11:17:21.489Z,91.64
2023-02-16T11:18:21.488Z,91.74
2023-02-16T11:19:21.425Z,91.64
2023-02-16T11:20:21.388Z,91.45
2023-02-16T11:21:21.348Z,91.83
2023-02-16T11:22:21.319Z,92.21
2023-02-16T11:23:21.280Z,91.74
2023-02-16T11:24:21.246Z,91.55
2023-02-16T11:25:21.226Z,91.55
2023-02-16T11:26:21.183Z,91.93
2023-02-16T11:27:21.147Z,91.74
2023-02-16T11:28:21.117Z,91.31
2023-02-16T11:29:21.093Z,91.78
2023-02-16T11:30:21.084Z,91.93
2023-02-16T11:31:21.130Z,91.83
2023-02-16T11:32:21.017Z,92.02
2023-02-16T11:33:20.938Z,92.02
2023-02-16T11:34:20.901Z,92.12
2023-02-16T11:35:20.890Z,92.21
2023-02-16T11:36:20.836Z,91.74
2023-02-16T11:37:20.826Z,91.74
2023-02-16T11:38:20.763Z,91.74
2023-02-16T11:39:20.734Z,91.93
2023-02-16T11:40:20.698Z,91.55
2023-02-16T11:41:20.664Z,92.21
2023-02-16T11:42:20.634Z,91.78
2023-02-16T11:43:20.601Z,91.88
2023-02-16T11:44:20.555Z,92.16
2023-02-16T11:45:20.519Z,92.45
2023-02-16T11:46:20.526Z,92.07
2023-02-16T11:47:20.448Z,92.07
2023-02-16T11:48:20.415Z,91.69
2023-02-16T11:49:20.394Z,91.97
2023-02-16T11:50:20.347Z,91.59
2023-02-16T11:51:20.959Z,91.78
2023-02-16T11:52:20.275Z,91.30
2023-02-16T11:53:20.242Z,91.69
2023-02-16T11:54:20.237Z,91.30
2023-02-16T11:55:20.251Z,92.16
2023-02-16T11:56:20.136Z,91.97
2023-02-16T11:57:20.102Z,91.97
2023-02-16T11:58:20.080Z,92.16
2023-02-16T11:59:20.034Z,92.83
2023-02-16T12:00:20.011Z,93.02
2023-02-16T12:01:19.965Z,92.26
2023-02-16T12:02:19.930Z,92.69
2023-02-16T12:03:19.898Z,93.31
2023-02-16T12:04:19.868Z,92.93
2023-02-16T12:05:19.913Z,92.79
2023-02-16T12:06:19.800Z,92.60
2023-02-16T12:07:19.761Z,93.26
2023-02-16T12:08:19.755Z,92.69
2023-02-16T12:09:19.696Z,92.93
2023-02-16T12:10:19.659Z,93.55
2023-02-16T12:11:19.628Z,93.26
2023-02-16T12:12:19.592Z,93.70
2023-02-16T12:13:19.559Z,93.60
2023-02-16T12:14:19.530Z,92.83
2023-02-16T12:15:19.485Z,92.64
2023-02-16T12:16:19.471Z,92.64
2023-02-16T12:17:19.417Z,93.02
2023-02-16T12:18:19.387Z,93.21
2023-02-16T12:19:19.355Z,92.74
2023-02-16T12:20:19.315Z,92.74
2023-02-16T12:21:19.972Z,92.93
2023-02-16T12:22:19.259Z,93.12
2023-02-16T12:23:19.227Z,93.31
2023-02-16T12:24:19.196Z,93.50
2023-02-16T12:25:19.157Z,92.93
2023-02-16T12:26:19.115Z,92.93
2023-02-16T12:27:19.131Z,93.31
2023-02-16T12:28:19.048Z,93.02
2023-02-16T12:29:19.009Z,92.74
2023-02-16T12:30:19.000Z,93.12
2023-02-16T12:31:19.079Z,93.02
2023-02-16T12:32:18.903Z,92.74
2023-02-16T12:33:18.869Z,93.31
2023-02-16T12:34:19.467Z,92.74
2023-02-16T12:35:19.365Z,92.74
2023-02-16T12:36:18.760Z,92.93
2023-02-16T12:37:18.731Z,92.93
2023-02-16T12:38:18.717Z,93.12
2023-02-16T12:39:18.663Z,93.12
2023-02-16T12:40:18.636Z,93.12
2023-02-16T12:41:18.604Z,93.31
2023-02-16T12:42:18.584Z,92.93
2023-02-16T12:43:18.531Z,93.21
2023-02-16T12:44:18.486Z,92.83
2023-02-16T12:45:18.462Z,92.64
2023-02-16T12:46:18.429Z,92.93
2023-02-16T12:47:18.388Z,93.02
2023-02-16T12:48:18.357Z,92.64
2023-02-16T12:49:18.332Z,92.64
2023-02-16T12:50:18.289Z,92.93
2023-02-16T12:51:19.001Z,92.64
2023-02-16T12:52:18.218Z,92.93